sensor_id;sensor_type;location;lat;lon;timestamp;temperature;humidity
22442;DHT22;11388;54.456;9.752;2023-02-28T00:01:20;6.30;99.90
22442;DHT22;11388;54.456;9.752;2023-02-28T00:03:46;6.30;99.90
22442;DHT22;11388;54.456;9.752;2023-02-28T00:06:11;6.20;99.90
22442;DHT22;11388;54.456;9.752;2023-02-28T00:08:38;6.20;99.90
22442;DHT22;11388;54.456;9.752;2023-02-28T00:11:09;6.30;99.90
22442;DHT22;11388;54.456;9.752;2023-02-28T00:13:38;6.20;99.90
22442;DHT22;11388;54.456;9.752;2023-02-28T00:16:10;6.30;99.90
22442;DHT22;11388;54.456;9.752;2023-02-28T00:18:37;6.10;99.90
22442;DHT22;11388;54.456;9.752;2023-02-28T00:21:03;6.20;99.90
22442;DHT22;11388;54.456;9.752;2023-02-28T00:23:29;6.20;99.90
22442;DHT22;11388;54.456;9.752;2023-02-28T00:25:55;6.20;99.90
22442;DHT22;11388;54.456;9.752;2023-02-28T00:28:21;6.20;99.90
22442;DHT22;11388;54.456;9.752;2023-02-28T00:30:47;6.00;99.90
22442;DHT22;11388;54.456;9.752;2023-02-28T00:33:13;6.00;99.90
22442;DHT22;11388;54.456;9.752;2023-02-28T00:35:38;5.90;99.90
22442;DHT22;11388;54.456;9.752;2023-02-28T00:38:04;5.80;99.90
22442;DHT22;11388;54.456;9.752;2023-02-28T00:40:30;5.60;99.90
22442;DHT22;11388;54.456;9.752;2023-02-28T00:42:55;5.50;99.90
22442;DHT22;11388;54.456;9.752;2023-02-28T00:45:21;5.60;99.90
22442;DHT22;11388;54.456;9.752;2023-02-28T00:47:47;5.60;99.90
22442;DHT22;11388;54.456;9.752;2023-02-28T00:50:17;5.70;99.90
22442;DHT22;11388;54.456;9.752;2023-02-28T00:52:43;5.70;99.90
22442;DHT22;11388;54.456;9.752;2023-02-28T00:55:09;5.80;99.90
22442;DHT22;11388;54.456;9.752;2023-02-28T00:57:35;5.80;99.90
22442;DHT22;11388;54.456;9.752;2023-02-28T01:00:01;5.90;99.90
22442;DHT22;11388;54.456;9.752;2023-02-28T01:02:29;5.90;99.90
22442;DHT22;11388;54.456;9.752;2023-02-28T01:04:54;6.00;99.90
22442;DHT22;11388;54.456;9.752;2023-02-28T01:07:22;6.00;99.90
22442;DHT22;11388;54.456;9.752;2023-02-28T01:09:48;6.00;99.90
22442;DHT22;11388;54.456;9.752;2023-02-28T01:12:13;6.00;99.90
22442;DHT22;11388;54.456;9.752;2023-02-28T01:14:39;6.00;99.90
22442;DHT22;11388;54.456;9.752;2023-02-28T01:17:05;5.90;99.90
22442;DHT22;11388;54.456;9.752;2023-02-28T01:19:32;5.90;99.90
22442;DHT22;11388;54.456;9.752;2023-02-28T01:22:03;5.90;99.90
22442;DHT22;11388;54.456;9.752;2023-02-28T01:24:30;5.80;99.90
22442;DHT22;11388;54.456;9.752;2023-02-28T01:26:55;5.80;99.90
22442;DHT22;11388;54.456;9.752;2023-02-28T01:29:21;5.90;99.90
22442;DHT22;11388;54.456;9.752;2023-02-28T01:31:47;6.00;99.90
22442;DHT22;11388;54.456;9.752;2023-02-28T01:34:12;6.10;99.90
22442;DHT22;11388;54.456;9.752;2023-02-28T01:36:38;6.00;99.90
22442;DHT22;11388;54.456;9.752;2023-02-28T01:39:04;6.00;99.90
22442;DHT22;11388;54.456;9.752;2023-02-28T01:41:32;6.00;99.90
22442;DHT22;11388;54.456;9.752;2023-02-28T01:46:49;5.90;99.90
22442;DHT22;11388;54.456;9.752;2023-02-28T01:49:16;5.90;99.90
22442;DHT22;11388;54.456;9.752;2023-02-28T01:51:49;5.80;99.90
22442;DHT22;11388;54.456;9.752;2023-02-28T01:54:26;5.80;99.90
22442;DHT22;11388;54.456;9.752;2023-02-28T01:57:04;5.80;99.90
22442;DHT22;11388;54.456;9.752;2023-02-28T01:59:51;5.70;99.90
22442;DHT22;11388;54.456;9.752;2023-02-28T02:02:19;5.80;99.90
22442;DHT22;11388;54.456;9.752;2023-02-28T02:04:55;5.90;99.90
22442;DHT22;11388;54.456;9.752;2023-02-28T02:07:23;5.90;99.90
22442;DHT22;11388;54.456;9.752;2023-02-28T02:10:01;5.70;99.90
22442;DHT22;11388;54.456;9.752;2023-02-28T02:15:34;5.70;99.90
22442;DHT22;11388;54.456;9.752;2023-02-28T02:26:52;5.80;99.90
22442;DHT22;11388;54.456;9.752;2023-02-28T02:35:11;5.70;99.90
22442;DHT22;11388;54.456;9.752;2023-02-28T02:40:35;5.70;99.90
22442;DHT22;11388;54.456;9.752;2023-02-28T02:43:16;5.80;99.90
22442;DHT22;11388;54.456;9.752;2023-02-28T02:45:50;5.70;99.90
22442;DHT22;11388;54.456;9.752;2023-02-28T02:48:19;5.50;99.90
22442;DHT22;11388;54.456;9.752;2023-02-28T02:50:53;5.60;99.90
22442;DHT22;11388;54.456;9.752;2023-02-28T02:53:24;5.40;99.90
22442;DHT22;11388;54.456;9.752;2023-02-28T02:55:52;5.40;99.90
22442;DHT22;11388;54.456;9.752;2023-02-28T02:58:24;5.50;99.90
22442;DHT22;11388;54.456;9.752;2023-02-28T03:00:54;5.60;99.90
22442;DHT22;11388;54.456;9.752;2023-02-28T03:03:22;5.70;99.90
22442;DHT22;11388;54.456;9.752;2023-02-28T03:05:58;5.80;99.90
22442;DHT22;11388;54.456;9.752;2023-02-28T03:08:24;5.70;99.90
22442;DHT22;11388;54.456;9.752;2023-02-28T03:10:51;5.70;99.90
22442;DHT22;11388;54.456;9.752;2023-02-28T03:16:09;5.60;99.90
22442;DHT22;11388;54.456;9.752;2023-02-28T03:24:31;5.90;99.90
22442;DHT22;11388;54.456;9.752;2023-02-28T03:27:24;5.90;99.90
22442;DHT22;11388;54.456;9.752;2023-02-28T03:30:10;5.90;99.90
22442;DHT22;11388;54.456;9.752;2023-02-28T03:33:26;5.80;99.90
22442;DHT22;11388;54.456;9.752;2023-02-28T03:35:32;5.80;99.90
22442;DHT22;11388;54.456;9.752;2023-02-28T03:38:20;5.70;99.90
22442;DHT22;11388;54.456;9.752;2023-02-28T03:40:58;5.70;99.90
22442;DHT22;11388;54.456;9.752;2023-02-28T03:43:30;5.50;99.90
22442;DHT22;11388;54.456;9.752;2023-02-28T03:45:59;5.50;99.90
22442;DHT22;11388;54.456;9.752;2023-02-28T03:48:55;5.60;99.90
22442;DHT22;11388;54.456;9.752;2023-02-28T03:51:23;5.50;99.90
22442;DHT22;11388;54.456;9.752;2023-02-28T03:54:21;5.60;99.90
22442;DHT22;11388;54.456;9.752;2023-02-28T03:56:50;5.70;99.90
22442;DHT22;11388;54.456;9.752;2023-02-28T03:59:57;5.40;99.90
22442;DHT22;11388;54.456;9.752;2023-02-28T04:02:25;5.40;99.90
22442;DHT22;11388;54.456;9.752;2023-02-28T04:04:50;5.50;99.90
22442;DHT22;11388;54.456;9.752;2023-02-28T04:07:16;5.40;99.90
22442;DHT22;11388;54.456;9.752;2023-02-28T04:09:42;5.40;99.90
22442;DHT22;11388;54.456;9.752;2023-02-28T04:12:09;5.40;99.90
22442;DHT22;11388;54.456;9.752;2023-02-28T04:14:34;5.40;99.90
22442;DHT22;11388;54.456;9.752;2023-02-28T04:17:00;5.40;99.90
22442;DHT22;11388;54.456;9.752;2023-02-28T04:19:26;5.40;99.90
22442;DHT22;11388;54.456;9.752;2023-02-28T04:21:53;5.30;99.90
22442;DHT22;11388;54.456;9.752;2023-02-28T04:24:21;5.40;99.90
22442;DHT22;11388;54.456;9.752;2023-02-28T04:26:50;5.30;99.90
22442;DHT22;11388;54.456;9.752;2023-02-28T04:29:25;5.20;99.90
22442;DHT22;11388;54.456;9.752;2023-02-28T04:31:52;5.10;99.90
22442;DHT22;11388;54.456;9.752;2023-02-28T04:34:23;5.20;99.90
22442;DHT22;11388;54.456;9.752;2023-02-28T04:36:49;5.30;99.90
22442;DHT22;11388;54.456;9.752;2023-02-28T04:39:16;5.20;99.90
22442;DHT22;11388;54.456;9.752;2023-02-28T04:41:44;5.20;99.90
22442;DHT22;11388;54.456;9.752;2023-02-28T04:44:10;5.20;99.90
22442;DHT22;11388;54.456;9.752;2023-02-28T04:46:36;5.20;99.90
22442;DHT22;11388;54.456;9.752;2023-02-28T04:49:02;5.00;99.90
22442;DHT22;11388;54.456;9.752;2023-02-28T04:51:28;5.00;99.90
22442;DHT22;11388;54.456;9.752;2023-02-28T04:53:54;4.90;99.90
22442;DHT22;11388;54.456;9.752;2023-02-28T04:56:20;4.80;99.90
22442;DHT22;11388;54.456;9.752;2023-02-28T04:58:47;4.80;99.90
22442;DHT22;11388;54.456;9.752;2023-02-28T05:03:44;4.60;99.90
22442;DHT22;11388;54.456;9.752;2023-02-28T05:06:11;4.60;99.90
22442;DHT22;11388;54.456;9.752;2023-02-28T05:08:37;4.60;99.90
22442;DHT22;11388;54.456;9.752;2023-02-28T05:11:05;4.60;99.90
22442;DHT22;11388;54.456;9.752;2023-02-28T05:13:31;4.60;99.90
22442;DHT22;11388;54.456;9.752;2023-02-28T05:15:57;4.50;99.90
22442;DHT22;11388;54.456;9.752;2023-02-28T05:18:22;4.50;99.90
22442;DHT22;11388;54.456;9.752;2023-02-28T05:20:48;4.40;99.90
22442;DHT22;11388;54.456;9.752;2023-02-28T05:23:14;4.40;99.90
22442;DHT22;11388;54.456;9.752;2023-02-28T05:25:41;4.20;99.90
22442;DHT22;11388;54.456;9.752;2023-02-28T05:28:07;4.00;99.90
22442;DHT22;11388;54.456;9.752;2023-02-28T05:30:33;3.90;99.90
22442;DHT22;11388;54.456;9.752;2023-02-28T05:32:59;3.90;99.90
22442;DHT22;11388;54.456;9.752;2023-02-28T05:35:25;3.90;99.90
22442;DHT22;11388;54.456;9.752;2023-02-28T05:37:52;3.90;99.90
22442;DHT22;11388;54.456;9.752;2023-02-28T05:40:17;3.80;99.90
22442;DHT22;11388;54.456;9.752;2023-02-28T05:42:44;3.80;99.90
22442;DHT22;11388;54.456;9.752;2023-02-28T05:45:10;3.50;99.90
22442;DHT22;11388;54.456;9.752;2023-02-28T05:47:36;3.50;99.90
22442;DHT22;11388;54.456;9.752;2023-02-28T05:50:02;3.50;99.90
22442;DHT22;11388;54.456;9.752;2023-02-28T05:52:28;3.60;99.90
22442;DHT22;11388;54.456;9.752;2023-02-28T05:54:55;3.50;99.90
22442;DHT22;11388;54.456;9.752;2023-02-28T05:57:21;3.50;99.90
22442;DHT22;11388;54.456;9.752;2023-02-28T05:59:47;3.60;99.90
22442;DHT22;11388;54.456;9.752;2023-02-28T06:02:15;3.60;99.90
22442;DHT22;11388;54.456;9.752;2023-02-28T06:04:43;3.80;99.90
22442;DHT22;11388;54.456;9.752;2023-02-28T06:07:09;3.80;99.90
22442;DHT22;11388;54.456;9.752;2023-02-28T06:09:35;3.80;99.90
22442;DHT22;11388;54.456;9.752;2023-02-28T06:12:02;3.80;99.90
22442;DHT22;11388;54.456;9.752;2023-02-28T06:14:35;3.80;99.90
22442;DHT22;11388;54.456;9.752;2023-02-28T06:17:02;3.80;99.90
22442;DHT22;11388;54.456;9.752;2023-02-28T06:19:28;3.90;99.90
22442;DHT22;11388;54.456;9.752;2023-02-28T06:21:56;3.80;99.90
22442;DHT22;11388;54.456;9.752;2023-02-28T06:24:23;3.70;99.90
22442;DHT22;11388;54.456;9.752;2023-02-28T06:26:50;3.60;99.90
22442;DHT22;11388;54.456;9.752;2023-02-28T06:29:16;3.60;99.90
22442;DHT22;11388;54.456;9.752;2023-02-28T06:31:45;3.70;99.90
22442;DHT22;11388;54.456;9.752;2023-02-28T06:34:11;3.70;99.90
22442;DHT22;11388;54.456;9.752;2023-02-28T06:36:38;3.60;99.90
22442;DHT22;11388;54.456;9.752;2023-02-28T06:39:05;3.60;99.90
22442;DHT22;11388;54.456;9.752;2023-02-28T06:41:31;3.70;99.90
22442;DHT22;11388;54.456;9.752;2023-02-28T06:43:57;3.80;99.90
22442;DHT22;11388;54.456;9.752;2023-02-28T06:46:23;3.60;99.90
22442;DHT22;11388;54.456;9.752;2023-02-28T06:48:49;3.50;99.90
22442;DHT22;11388;54.456;9.752;2023-02-28T06:51:19;3.60;99.90
22442;DHT22;11388;54.456;9.752;2023-02-28T06:53:50;3.60;99.90
22442;DHT22;11388;54.456;9.752;2023-02-28T06:56:18;3.70;99.90
22442;DHT22;11388;54.456;9.752;2023-02-28T06:58:49;3.70;99.90
22442;DHT22;11388;54.456;9.752;2023-02-28T07:01:15;3.70;99.90
22442;DHT22;11388;54.456;9.752;2023-02-28T07:03:41;3.70;99.90
22442;DHT22;11388;54.456;9.752;2023-02-28T07:06:07;3.70;99.90
22442;DHT22;11388;54.456;9.752;2023-02-28T07:08:34;3.60;99.90
22442;DHT22;11388;54.456;9.752;2023-02-28T07:11:01;3.70;99.90
22442;DHT22;11388;54.456;9.752;2023-02-28T07:13:27;3.80;99.90
22442;DHT22;11388;54.456;9.752;2023-02-28T07:16:01;3.80;99.90
22442;DHT22;11388;54.456;9.752;2023-02-28T07:18:27;3.80;99.90
22442;DHT22;11388;54.456;9.752;2023-02-28T07:20:53;4.00;99.90
22442;DHT22;11388;54.456;9.752;2023-02-28T07:23:19;4.00;99.90
22442;DHT22;11388;54.456;9.752;2023-02-28T07:25:45;4.10;99.90
22442;DHT22;11388;54.456;9.752;2023-02-28T07:28:12;4.10;99.90
22442;DHT22;11388;54.456;9.752;2023-02-28T07:30:38;4.10;99.90
22442;DHT22;11388;54.456;9.752;2023-02-28T07:33:04;4.10;99.90
22442;DHT22;11388;54.456;9.752;2023-02-28T07:35:30;4.20;99.90
22442;DHT22;11388;54.456;9.752;2023-02-28T07:37:58;4.30;99.90
22442;DHT22;11388;54.456;9.752;2023-02-28T07:40:24;4.30;99.90
22442;DHT22;11388;54.456;9.752;2023-02-28T07:42:49;4.30;99.90
22442;DHT22;11388;54.456;9.752;2023-02-28T07:45:15;4.40;99.90
22442;DHT22;11388;54.456;9.752;2023-02-28T07:47:42;4.40;99.90
22442;DHT22;11388;54.456;9.752;2023-02-28T07:50:11;4.40;99.90
22442;DHT22;11388;54.456;9.752;2023-02-28T07:52:37;4.50;99.90
22442;DHT22;11388;54.456;9.752;2023-02-28T07:55:05;4.50;99.90
22442;DHT22;11388;54.456;9.752;2023-02-28T07:57:31;4.50;99.90
22442;DHT22;11388;54.456;9.752;2023-02-28T07:59:57;4.50;99.90
22442;DHT22;11388;54.456;9.752;2023-02-28T08:02:23;4.70;99.90
22442;DHT22;11388;54.456;9.752;2023-02-28T08:04:48;4.60;99.90
22442;DHT22;11388;54.456;9.752;2023-02-28T08:07:15;4.80;99.90
22442;DHT22;11388;54.456;9.752;2023-02-28T08:09:42;4.70;99.90
22442;DHT22;11388;54.456;9.752;2023-02-28T08:12:09;4.70;99.90
22442;DHT22;11388;54.456;9.752;2023-02-28T08:14:35;4.70;99.90
22442;DHT22;11388;54.456;9.752;2023-02-28T08:17:01;4.80;99.90
22442;DHT22;11388;54.456;9.752;2023-02-28T08:19:27;4.80;99.90
22442;DHT22;11388;54.456;9.752;2023-02-28T08:21:54;4.90;99.90
22442;DHT22;11388;54.456;9.752;2023-02-28T08:24:20;4.90;99.90
22442;DHT22;11388;54.456;9.752;2023-02-28T08:26:45;5.00;99.90
22442;DHT22;11388;54.456;9.752;2023-02-28T08:29:11;5.10;99.90
22442;DHT22;11388;54.456;9.752;2023-02-28T08:31:37;5.30;99.90
22442;DHT22;11388;54.456;9.752;2023-02-28T08:34:08;5.20;99.90
22442;DHT22;11388;54.456;9.752;2023-02-28T08:36:34;5.20;99.90
22442;DHT22;11388;54.456;9.752;2023-02-28T08:38:59;5.20;99.90
22442;DHT22;11388;54.456;9.752;2023-02-28T08:41:27;5.30;99.90
22442;DHT22;11388;54.456;9.752;2023-02-28T08:43:53;5.40;99.90
22442;DHT22;11388;54.456;9.752;2023-02-28T08:46:19;5.40;99.90
22442;DHT22;11388;54.456;9.752;2023-02-28T08:48:45;5.50;99.90
22442;DHT22;11388;54.456;9.752;2023-02-28T08:51:14;5.50;99.90
22442;DHT22;11388;54.456;9.752;2023-02-28T08:53:44;5.60;99.90
22442;DHT22;11388;54.456;9.752;2023-02-28T08:56:12;5.60;99.90
22442;DHT22;11388;54.456;9.752;2023-02-28T08:58:39;5.70;99.90
22442;DHT22;11388;54.456;9.752;2023-02-28T09:01:26;5.70;99.90
22442;DHT22;11388;54.456;9.752;2023-02-28T09:03:53;5.80;99.90
22442;DHT22;11388;54.456;9.752;2023-02-28T09:06:21;5.90;99.90
22442;DHT22;11388;54.456;9.752;2023-02-28T09:08:47;6.00;99.90
22442;DHT22;11388;54.456;9.752;2023-02-28T09:11:13;6.10;99.90
22442;DHT22;11388;54.456;9.752;2023-02-28T09:13:39;6.10;99.90
22442;DHT22;11388;54.456;9.752;2023-02-28T09:16:07;6.20;99.90
22442;DHT22;11388;54.456;9.752;2023-02-28T09:18:37;6.10;99.90
22442;DHT22;11388;54.456;9.752;2023-02-28T09:21:07;6.20;99.90
22442;DHT22;11388;54.456;9.752;2023-02-28T09:23:34;6.20;99.90
22442;DHT22;11388;54.456;9.752;2023-02-28T09:26:00;6.30;99.90
22442;DHT22;11388;54.456;9.752;2023-02-28T09:28:26;6.50;99.90
22442;DHT22;11388;54.456;9.752;2023-02-28T09:30:53;6.50;99.90
22442;DHT22;11388;54.456;9.752;2023-02-28T09:33:21;6.60;99.90
22442;DHT22;11388;54.456;9.752;2023-02-28T09:35:47;6.60;99.90
22442;DHT22;11388;54.456;9.752;2023-02-28T09:38:13;6.70;99.90
22442;DHT22;11388;54.456;9.752;2023-02-28T09:40:50;6.70;99.90
22442;DHT22;11388;54.456;9.752;2023-02-28T09:43:18;6.60;99.90
22442;DHT22;11388;54.456;9.752;2023-02-28T09:46:08;6.70;99.90
22442;DHT22;11388;54.456;9.752;2023-02-28T09:48:42;6.60;99.90
22442;DHT22;11388;54.456;9.752;2023-02-28T09:51:40;6.50;99.90
22442;DHT22;11388;54.456;9.752;2023-02-28T09:54:18;6.60;99.90
22442;DHT22;11388;54.456;9.752;2023-02-28T09:56:56;6.70;99.90
22442;DHT22;11388;54.456;9.752;2023-02-28T10:02:40;6.70;99.90
22442;DHT22;11388;54.456;9.752;2023-02-28T10:05:15;6.70;99.90
22442;DHT22;11388;54.456;9.752;2023-02-28T10:08:02;6.70;99.90
22442;DHT22;11388;54.456;9.752;2023-02-28T10:10:40;6.80;99.90
22442;DHT22;11388;54.456;9.752;2023-02-28T10:13:26;6.90;99.90
22442;DHT22;11388;54.456;9.752;2023-02-28T10:15:59;6.90;99.90
22442;DHT22;11388;54.456;9.752;2023-02-28T10:18:47;7.10;99.90
22442;DHT22;11388;54.456;9.752;2023-02-28T10:21:28;7.10;99.90
22442;DHT22;11388;54.456;9.752;2023-02-28T10:24:02;7.20;99.90
22442;DHT22;11388;54.456;9.752;2023-02-28T10:26:30;7.10;99.90
22442;DHT22;11388;54.456;9.752;2023-02-28T10:28:56;7.10;99.90
22442;DHT22;11388;54.456;9.752;2023-02-28T10:31:22;7.10;99.90
22442;DHT22;11388;54.456;9.752;2023-02-28T10:33:48;7.20;99.90
22442;DHT22;11388;54.456;9.752;2023-02-28T10:36:16;7.20;99.90
22442;DHT22;11388;54.456;9.752;2023-02-28T10:38:43;7.20;99.90
22442;DHT22;11388;54.456;9.752;2023-02-28T10:43:41;7.30;99.90
22442;DHT22;11388;54.456;9.752;2023-02-28T10:46:11;7.50;99.90
22442;DHT22;11388;54.456;9.752;2023-02-28T10:49:00;7.40;99.90
22442;DHT22;11388;54.456;9.752;2023-02-28T10:51:34;7.40;99.90
22442;DHT22;11388;54.456;9.752;2023-02-28T10:54:00;7.30;99.90
22442;DHT22;11388;54.456;9.752;2023-02-28T10:56:27;7.30;99.90
22442;DHT22;11388;54.456;9.752;2023-02-28T11:01:41;7.30;99.90
22442;DHT22;11388;54.456;9.752;2023-02-28T11:07:16;7.30;99.90
22442;DHT22;11388;54.456;9.752;2023-02-28T11:09:49;7.40;99.90
22442;DHT22;11388;54.456;9.752;2023-02-28T11:12:38;7.50;99.90
22442;DHT22;11388;54.456;9.752;2023-02-28T11:15:27;7.50;99.90
22442;DHT22;11388;54.456;9.752;2023-02-28T11:17:57;7.60;99.90
22442;DHT22;11388;54.456;9.752;2023-02-28T11:20:26;7.60;99.90
22442;DHT22;11388;54.456;9.752;2023-02-28T11:22:53;7.60;99.90
22442;DHT22;11388;54.456;9.752;2023-02-28T11:25:29;7.70;99.90
22442;DHT22;11388;54.456;9.752;2023-02-28T11:28:04;7.80;99.90
22442;DHT22;11388;54.456;9.752;2023-02-28T11:30:41;7.70;99.90
22442;DHT22;11388;54.456;9.752;2023-02-28T11:35:53;7.90;99.90
22442;DHT22;11388;54.456;9.752;2023-02-28T11:38:19;8.10;99.90
22442;DHT22;11388;54.456;9.752;2023-02-28T11:41:09;8.20;99.90
22442;DHT22;11388;54.456;9.752;2023-02-28T11:44:04;8.30;99.90
22442;DHT22;11388;54.456;9.752;2023-02-28T11:54:58;8.70;99.90
22442;DHT22;11388;54.456;9.752;2023-02-28T11:57:56;8.90;99.90
22442;DHT22;11388;54.456;9.752;2023-02-28T12:00:38;9.10;99.90
22442;DHT22;11388;54.456;9.752;2023-02-28T12:06:22;9.00;99.90
22442;DHT22;11388;54.456;9.752;2023-02-28T12:08:53;9.10;99.90
22442;DHT22;11388;54.456;9.752;2023-02-28T12:20:21;9.60;99.90
22442;DHT22;11388;54.456;9.752;2023-02-28T12:25:59;11.10;99.90
22442;DHT22;11388;54.456;9.752;2023-02-28T12:28:31;12.50;99.90
22442;DHT22;11388;54.456;9.752;2023-02-28T12:33:51;15.40;99.90
22442;DHT22;11388;54.456;9.752;2023-02-28T12:36:19;17.00;99.90
22442;DHT22;11388;54.456;9.752;2023-02-28T12:39:00;18.00;99.90
22442;DHT22;11388;54.456;9.752;2023-02-28T12:44:04;18.00;97.20
22442;DHT22;11388;54.456;9.752;2023-02-28T12:46:38;18.40;96.50
22442;DHT22;11388;54.456;9.752;2023-02-28T12:49:13;18.80;95.30
22442;DHT22;11388;54.456;9.752;2023-02-28T12:51:41;19.00;94.50
22442;DHT22;11388;54.456;9.752;2023-02-28T12:54:26;18.70;95.30
22442;DHT22;11388;54.456;9.752;2023-02-28T13:10:08;17.50;92.90
22442;DHT22;11388;54.456;9.752;2023-02-28T13:12:35;15.60;95.10
22442;DHT22;11388;54.456;9.752;2023-02-28T13:17:53;13.90;98.50
22442;DHT22;11388;54.456;9.752;2023-02-28T13:20:34;13.10;99.90
22442;DHT22;11388;54.456;9.752;2023-02-28T13:23:00;13.20;99.90
22442;DHT22;11388;54.456;9.752;2023-02-28T13:27:58;12.60;99.90
22442;DHT22;11388;54.456;9.752;2023-02-28T13:33:35;12.10;99.90
22442;DHT22;11388;54.456;9.752;2023-02-28T13:46:38;10.90;99.90
22442;DHT22;11388;54.456;9.752;2023-02-28T13:54:56;10.70;99.90
22442;DHT22;11388;54.456;9.752;2023-02-28T14:03:01;10.50;99.90
22442;DHT22;11388;54.456;9.752;2023-02-28T14:05:31;10.40;99.90
22442;DHT22;11388;54.456;9.752;2023-02-28T14:08:03;10.50;99.90
22442;DHT22;11388;54.456;9.752;2023-02-28T14:10:32;10.60;99.90
22442;DHT22;11388;54.456;9.752;2023-02-28T14:15:47;10.50;99.90
22442;DHT22;11388;54.456;9.752;2023-02-28T14:20:49;10.80;99.90
22442;DHT22;11388;54.456;9.752;2023-02-28T14:32:02;10.70;99.90
22442;DHT22;11388;54.456;9.752;2023-02-28T14:34:44;10.50;99.90
22442;DHT22;11388;54.456;9.752;2023-02-28T14:37:19;10.50;99.90
22442;DHT22;11388;54.456;9.752;2023-02-28T14:39:46;10.50;99.90
22442;DHT22;11388;54.456;9.752;2023-02-28T14:42:32;10.50;99.90
22442;DHT22;11388;54.456;9.752;2023-02-28T14:44:58;10.70;99.90
22442;DHT22;11388;54.456;9.752;2023-02-28T14:47:31;10.60;99.90
22442;DHT22;11388;54.456;9.752;2023-02-28T14:49:59;10.50;99.90
22442;DHT22;11388;54.456;9.752;2023-02-28T14:52:27;10.40;99.90
22442;DHT22;11388;54.456;9.752;2023-02-28T14:55:06;10.60;99.90
22442;DHT22;11388;54.456;9.752;2023-02-28T14:57:58;10.60;99.90
22442;DHT22;11388;54.456;9.752;2023-02-28T15:00:30;10.80;99.90
22442;DHT22;11388;54.456;9.752;2023-02-28T15:02:57;11.00;99.90
22442;DHT22;11388;54.456;9.752;2023-02-28T15:05:27;11.40;99.90
22442;DHT22;11388;54.456;9.752;2023-02-28T15:08:22;11.20;99.90
22442;DHT22;11388;54.456;9.752;2023-02-28T15:11:02;11.50;99.90
22442;DHT22;11388;54.456;9.752;2023-02-28T15:13:53;11.40;99.90
22442;DHT22;11388;54.456;9.752;2023-02-28T15:18:50;11.20;99.90
22442;DHT22;11388;54.456;9.752;2023-02-28T15:21:24;11.00;99.90
22442;DHT22;11388;54.456;9.752;2023-02-28T15:26:22;11.10;99.90
22442;DHT22;11388;54.456;9.752;2023-02-28T15:28:52;11.00;99.90
22442;DHT22;11388;54.456;9.752;2023-02-28T15:31:32;11.00;99.90
22442;DHT22;11388;54.456;9.752;2023-02-28T15:34:03;11.20;99.90
22442;DHT22;11388;54.456;9.752;2023-02-28T15:36:31;11.40;99.90
22442;DHT22;11388;54.456;9.752;2023-02-28T15:38:59;11.40;99.90
22442;DHT22;11388;54.456;9.752;2023-02-28T15:41:31;11.50;99.90
22442;DHT22;11388;54.456;9.752;2023-02-28T15:44:17;11.40;99.90
22442;DHT22;11388;54.456;9.752;2023-02-28T15:46:53;11.10;99.90
22442;DHT22;11388;54.456;9.752;2023-02-28T15:49:21;11.20;99.90
22442;DHT22;11388;54.456;9.752;2023-02-28T15:51:49;11.70;99.90
22442;DHT22;11388;54.456;9.752;2023-02-28T15:54:22;11.60;99.90
22442;DHT22;11388;54.456;9.752;2023-02-28T15:56:55;11.50;99.90
22442;DHT22;11388;54.456;9.752;2023-02-28T15:59:23;11.60;99.90
22442;DHT22;11388;54.456;9.752;2023-02-28T16:02:32;11.50;99.90
22442;DHT22;11388;54.456;9.752;2023-02-28T16:07:40;11.20;99.90
22442;DHT22;11388;54.456;9.752;2023-02-28T16:10:08;11.20;99.90
22442;DHT22;11388;54.456;9.752;2023-02-28T16:12:37;10.90;99.90
22442;DHT22;11388;54.456;9.752;2023-02-28T16:15:08;10.80;99.90
22442;DHT22;11388;54.456;9.752;2023-02-28T16:17:37;10.70;99.90
22442;DHT22;11388;54.456;9.752;2023-02-28T16:22:39;10.40;99.90
22442;DHT22;11388;54.456;9.752;2023-02-28T16:25:05;10.40;99.90
22442;DHT22;11388;54.456;9.752;2023-02-28T16:27:36;10.30;99.90
22442;DHT22;11388;54.456;9.752;2023-02-28T16:30:05;10.10;99.90
22442;DHT22;11388;54.456;9.752;2023-02-28T16:32:33;10.00;99.90
22442;DHT22;11388;54.456;9.752;2023-02-28T16:35:00;9.90;99.90
22442;DHT22;11388;54.456;9.752;2023-02-28T16:37:27;9.70;99.90
22442;DHT22;11388;54.456;9.752;2023-02-28T16:39:53;9.70;99.90
22442;DHT22;11388;54.456;9.752;2023-02-28T16:42:27;9.50;99.90
22442;DHT22;11388;54.456;9.752;2023-02-28T16:44:54;9.50;99.90
22442;DHT22;11388;54.456;9.752;2023-02-28T16:47:20;9.30;99.90
22442;DHT22;11388;54.456;9.752;2023-02-28T16:49:46;9.30;99.90
22442;DHT22;11388;54.456;9.752;2023-02-28T16:52:13;9.30;99.90
22442;DHT22;11388;54.456;9.752;2023-02-28T16:54:40;9.30;99.90
22442;DHT22;11388;54.456;9.752;2023-02-28T16:57:13;9.20;99.90
22442;DHT22;11388;54.456;9.752;2023-02-28T16:59:42;8.90;99.90
22442;DHT22;11388;54.456;9.752;2023-02-28T17:02:12;8.70;99.90
22442;DHT22;11388;54.456;9.752;2023-02-28T17:04:39;8.70;99.90
22442;DHT22;11388;54.456;9.752;2023-02-28T17:07:06;8.80;99.90
22442;DHT22;11388;54.456;9.752;2023-02-28T17:09:33;8.60;99.90
22442;DHT22;11388;54.456;9.752;2023-02-28T17:11:59;8.50;99.90
22442;DHT22;11388;54.456;9.752;2023-02-28T17:14:25;8.40;99.90
22442;DHT22;11388;54.456;9.752;2023-02-28T17:16:50;8.30;99.90
22442;DHT22;11388;54.456;9.752;2023-02-28T17:19:16;8.10;99.90
22442;DHT22;11388;54.456;9.752;2023-02-28T17:21:43;8.00;99.90
22442;DHT22;11388;54.456;9.752;2023-02-28T17:24:09;8.10;99.90
22442;DHT22;11388;54.456;9.752;2023-02-28T17:26:38;8.20;99.90
22442;DHT22;11388;54.456;9.752;2023-02-28T17:29:11;8.20;99.90
22442;DHT22;11388;54.456;9.752;2023-02-28T17:31:38;8.10;99.90
22442;DHT22;11388;54.456;9.752;2023-02-28T17:34:04;8.10;99.90
22442;DHT22;11388;54.456;9.752;2023-02-28T17:36:30;8.00;99.90
22442;DHT22;11388;54.456;9.752;2023-02-28T17:38:56;7.80;99.90
22442;DHT22;11388;54.456;9.752;2023-02-28T17:41:23;7.60;99.90
22442;DHT22;11388;54.456;9.752;2023-02-28T17:43:49;7.40;99.90
22442;DHT22;11388;54.456;9.752;2023-02-28T17:46:18;7.30;99.90
22442;DHT22;11388;54.456;9.752;2023-02-28T17:48:49;7.20;99.90
22442;DHT22;11388;54.456;9.752;2023-02-28T17:51:16;7.20;99.90
22442;DHT22;11388;54.456;9.752;2023-02-28T17:53:43;7.10;99.90
22442;DHT22;11388;54.456;9.752;2023-02-28T17:56:23;7.10;99.90
22442;DHT22;11388;54.456;9.752;2023-02-28T17:58:51;7.20;99.90
22442;DHT22;11388;54.456;9.752;2023-02-28T18:01:16;7.20;99.90
22442;DHT22;11388;54.456;9.752;2023-02-28T18:03:42;7.30;99.90
22442;DHT22;11388;54.456;9.752;2023-02-28T18:06:16;7.40;99.90
22442;DHT22;11388;54.456;9.752;2023-02-28T18:08:44;7.40;99.90
22442;DHT22;11388;54.456;9.752;2023-02-28T18:11:10;7.40;99.90
22442;DHT22;11388;54.456;9.752;2023-02-28T18:13:49;7.40;99.90
22442;DHT22;11388;54.456;9.752;2023-02-28T18:16:17;7.20;99.90
22442;DHT22;11388;54.456;9.752;2023-02-28T18:18:43;7.10;99.90
22442;DHT22;11388;54.456;9.752;2023-02-28T18:21:11;7.00;99.90
22442;DHT22;11388;54.456;9.752;2023-02-28T18:23:37;7.00;99.90
22442;DHT22;11388;54.456;9.752;2023-02-28T18:26:07;7.10;99.90